Time;durP1;ratioP1;P1;durP2;ratioP2;P2;SDS_P1;SDS_P2;PMS_P1;PMS_P2;Temp;Humidity;BMP_temperature;BMP_pressure;BME280_temperature;BME280_humidity;BME280_pressure;Samples;Min_cycle;Max_cycle;Signal;HPM_P1;HPM_P2
2021/10/19 00:00:54;;;;;;;1999.90;999.90;;;;;;;8.17;99.95;96676.66;5113490;28;20195;-68
2021/10/19 00:03:21;;;;;;;1999.90;999.90;;;;;;;8.10;100.00;96685.69;5113641;28;20195;-68
2021/10/19 00:05:48;;;;;;;1999.90;999.90;;;;;;;8.08;100.00;96683.31;5113310;28;20244;-68
2021/10/19 00:08:15;;;;;;;1999.90;999.90;;;;;;;8.11;100.00;96679.47;5113740;28;20199;-68
2021/10/19 00:10:44;;;;;;;1999.90;999.90;;;;;;;8.11;100.00;96692.41;5113186;28;20201;-67
2021/10/19 00:13:11;;;;;;;1999.90;999.90;;;;;;;8.12;100.00;96696.53;5113404;28;20203;-68
2021/10/19 00:15:38;;;;;;;1999.90;999.90;;;;;;;8.13;100.00;96692.94;5113081;28;20234;-68
2021/10/19 00:18:05;;;;;;;1999.90;999.90;;;;;;;8.06;100.00;96695.75;5113441;28;20199;-68
2021/10/19 00:20:32;;;;;;;1999.90;999.90;;;;;;;8.05;100.00;96693.41;5112963;28;20685;-68
2021/10/19 00:23:00;;;;;;;1999.90;999.90;;;;;;;7.98;100.00;96691.00;5113382;28;20559;-67
2021/10/19 00:25:27;;;;;;;1999.90;999.90;;;;;;;7.94;100.00;96694.34;5113271;28;20219;-67
2021/10/19 00:27:55;;;;;;;1999.90;999.90;;;;;;;7.94;100.00;96696.94;5112935;28;20191;-68
2021/10/19 00:30:22;;;;;;;1999.90;999.90;;;;;;;7.88;100.00;96697.91;5113088;28;20195;-67
2021/10/19 00:32:50;;;;;;;1999.90;999.90;;;;;;;7.84;100.00;96691.66;5113274;28;20241;-68
2021/10/19 00:35:17;;;;;;;1999.90;999.90;;;;;;;7.87;100.00;96691.19;5113158;28;20604;-68
2021/10/19 00:37:44;;;;;;;1999.90;999.90;;;;;;;7.74;100.00;96693.13;5113286;28;20263;-68
2021/10/19 00:40:12;;;;;;;1999.90;999.90;;;;;;;7.75;100.00;96697.28;5112827;28;20923;-68
2021/10/19 00:42:39;;;;;;;1999.90;999.90;;;;;;;7.70;100.00;96693.88;5112688;27;20252;-68
2021/10/19 00:45:10;;;;;;;1999.90;999.90;;;;;;;7.74;100.00;96700.13;5112391;28;20756;-67
2021/10/19 00:47:40;;;;;;;1999.90;999.90;;;;;;;7.69;100.00;96697.47;5112500;28;20230;-68
2021/10/19 00:50:08;;;;;;;1999.90;999.90;;;;;;;7.64;100.00;96694.84;5112562;28;20190;-68
2021/10/19 00:52:35;;;;;;;1999.90;999.90;;;;;;;7.61;100.00;96688.38;5112812;28;20202;-68
2021/10/19 00:55:03;;;;;;;1999.90;999.90;;;;;;;7.61;100.00;96692.75;5112381;27;20187;-68
2021/10/19 00:57:31;;;;;;;1999.90;999.90;;;;;;;7.57;100.00;96696.88;5112334;28;20230;-68
2021/10/19 00:59:58;;;;;;;1999.90;999.90;;;;;;;7.56;100.00;96693.50;5112425;28;20252;-68
2021/10/19 01:02:28;;;;;;;1999.90;999.90;;;;;;;7.43;100.00;96696.44;5111971;28;20195;-68
2021/10/19 01:04:55;;;;;;;1999.90;999.90;;;;;;;7.49;100.00;96692.91;5112414;28;20219;-69
2021/10/19 01:07:23;;;;;;;1999.90;999.90;;;;;;;7.49;100.00;96698.06;5112162;28;20199;-68
2021/10/19 01:09:50;;;;;;;1999.90;999.90;;;;;;;7.49;100.00;96695.47;5112202;28;20252;-68
2021/10/19 01:12:18;;;;;;;1999.90;999.90;;;;;;;7.46;100.00;96697.78;5112044;28;20202;-68
2021/10/19 01:14:45;;;;;;;1999.90;999.90;;;;;;;7.38;100.00;96701.56;5111866;28;20199;-68
2021/10/19 01:17:12;;;;;;;1999.90;999.90;;;;;;;7.40;100.00;96693.56;5112375;28;20202;-68
2021/10/19 01:19:41;;;;;;;1999.90;999.90;;;;;;;7.29;100.00;96697.84;5111836;28;20199;-68
2021/10/19 01:22:10;;;;;;;1999.90;999.90;;;;;;;7.25;100.00;96707.91;5111891;28;20197;-68
2021/10/19 01:24:37;;;;;;;1999.90;999.90;;;;;;;7.17;100.00;96699.81;5111397;28;20223;-68
2021/10/19 01:27:05;;;;;;;1999.90;999.90;;;;;;;7.12;100.00;96692.78;5111727;28;20201;-68
2021/10/19 01:29:32;;;;;;;1999.90;999.90;;;;;;;7.18;100.00;96702.13;5111735;28;20199;-68
2021/10/19 01:32:01;;;;;;;1999.90;999.90;;;;;;;7.08;100.00;96703.81;5111539;28;20201;-66
2021/10/19 01:34:34;;;;;;;1999.90;999.90;;;;;;;7.07;100.00;96697.09;5111691;28;20276;-68
2021/10/19 01:37:01;;;;;;;1999.90;999.90;;;;;;;7.00;100.00;96693.91;5111562;28;20191;-68
2021/10/19 01:39:30;;;;;;;1999.90;999.90;;;;;;;7.04;100.00;96693.19;5111511;28;20195;-68
2021/10/19 01:41:57;;;;;;;1999.90;999.90;;;;;;;7.00;100.00;96699.06;5111433;28;20199;-68
2021/10/19 01:44:24;;;;;;;1999.90;999.90;;;;;;;6.89;100.00;96714.44;5111363;28;20218;-68
2021/10/19 01:46:51;;;;;;;1999.90;999.90;;;;;;;6.85;100.00;96707.41;5111280;28;20203;-68
2021/10/19 01:49:18;;;;;;;1999.90;999.90;;;;;;;6.82;100.00;96706.09;5111685;28;20256;-68
2021/10/19 01:51:45;;;;;;;1999.90;999.90;;;;;;;6.85;100.00;96708.22;5111511;28;20213;-66
2021/10/19 01:54:13;;;;;;;1999.90;999.90;;;;;;;6.67;100.00;96711.06;5111264;28;20199;-68
2021/10/19 01:56:41;;;;;;;1999.90;999.90;;;;;;;6.64;100.00;96710.75;5110897;28;20230;-68
2021/10/19 01:59:08;;;;;;;1999.90;999.90;;;;;;;6.63;100.00;96714.34;5111486;28;20199;-68
2021/10/19 02:01:39;;;;;;;1999.90;999.90;;;;;;;6.71;100.00;96714.75;5111091;28;20198;-68
2021/10/19 02:04:06;;;;;;;1999.90;999.90;;;;;;;6.63;100.00;96709.97;5111014;28;20248;-66
2021/10/19 02:06:33;;;;;;;1999.90;999.90;;;;;;;6.64;100.00;96714.13;5110860;28;20206;-68
2021/10/19 02:09:00;;;;;;;1999.90;999.90;;;;;;;6.53;100.00;96706.47;5110887;28;20682;-68
2021/10/19 02:11:27;;;;;;;1999.90;999.90;;;;;;;6.51;100.00;96714.47;5111169;28;20191;-68
2021/10/19 02:13:56;;;;;;;1999.90;999.90;;;;;;;6.53;100.00;96715.00;5110526;28;20250;-68
2021/10/19 02:16:23;;;;;;;1999.90;999.90;;;;;;;6.47;100.00;96715.97;5110822;28;20749;-67
2021/10/19 02:18:50;;;;;;;1999.90;999.90;;;;;;;6.49;100.00;96712.09;5111171;28;20195;-67
2021/10/19 02:21:18;;;;;;;1999.90;999.90;;;;;;;6.48;100.00;96717.50;5110782;28;20202;-67
2021/10/19 02:23:45;;;;;;;1999.90;999.90;;;;;;;6.44;100.00;96713.84;5110962;28;20218;-67
2021/10/19 02:26:12;;;;;;;1999.90;999.90;;;;;;;6.31;100.00;96716.75;5110482;28;20643;-68
2021/10/19 02:28:40;;;;;;;1999.90;999.90;;;;;;;6.22;100.00;96713.00;5110727;28;20198;-67
2021/10/19 02:31:10;;;;;;;1999.90;999.90;;;;;;;6.16;100.00;96719.09;5110860;27;20627;-68
2021/10/19 02:33:38;;;;;;;1999.90;999.90;;;;;;;6.07;100.00;96723.09;5110929;28;20187;-68
2021/10/19 02:36:05;;;;;;;1999.90;999.90;;;;;;;6.03;100.00;96725.31;5110759;28;20277;-68
2021/10/19 02:38:32;;;;;;;1999.90;999.90;;;;;;;6.09;100.00;96728.78;5110674;28;20206;-68
2021/10/19 02:40:59;;;;;;;1999.90;999.90;;;;;;;6.15;100.00;96733.78;5110621;28;20199;-69
2021/10/19 02:43:26;;;;;;;1999.90;999.90;;;;;;;6.12;100.00;96728.31;5110845;28;20631;-69
2021/10/19 02:45:53;;;;;;;1999.90;999.90;;;;;;;6.06;100.00;96737.78;5110589;28;20226;-69
2021/10/19 02:48:22;;;;;;;1999.90;999.90;;;;;;;5.93;100.00;96741.44;5110298;28;20210;-69
2021/10/19 02:50:49;;;;;;;1999.90;999.90;;;;;;;5.88;100.00;96740.56;5110327;28;20202;-69
2021/10/19 02:53:16;;;;;;;1999.90;999.90;;;;;;;5.91;100.00;96745.28;5110772;28;20206;-69
2021/10/19 02:55:43;;;;;;;1999.90;999.90;;;;;;;5.94;100.00;96743.00;5110285;28;20194;-69
2021/10/19 02:58:10;;;;;;;1999.90;999.90;;;;;;;5.90;100.00;96741.91;5110154;28;20608;-69
2021/10/19 03:00:37;;;;;;;1999.90;999.90;;;;;;;5.85;100.00;96744.38;5110306;28;20195;-69
2021/10/19 03:03:05;;;;;;;1999.90;999.90;;;;;;;5.76;100.00;96742.41;5110184;28;20209;-69
2021/10/19 03:05:33;;;;;;;1999.90;999.90;;;;;;;5.73;100.00;96745.44;5110201;28;20226;-69
2021/10/19 03:08:00;;;;;;;1999.90;999.90;;;;;;;5.69;100.00;96746.91;5110400;28;20271;-69
2021/10/19 03:10:27;;;;;;;1999.90;999.90;;;;;;;5.62;100.00;96744.47;5110248;28;20195;-69
2021/10/19 03:12:54;;;;;;;1999.90;999.90;;;;;;;5.62;100.00;96747.06;5110475;28;20206;-69
2021/10/19 03:15:24;;;;;;;1999.90;999.90;;;;;;;5.62;100.00;96754.78;5110059;28;20577;-69
2021/10/19 03:17:51;;;;;;;1999.90;999.90;;;;;;;5.64;100.00;96748.38;5110158;28;20205;-68
2021/10/19 03:20:18;;;;;;;1999.90;999.90;;;;;;;5.63;100.00;96751.97;5109575;28;20195;-68
2021/10/19 03:22:47;;;;;;;1999.90;999.90;;;;;;;5.59;100.00;96745.72;5109911;28;20204;-68
2021/10/19 03:25:14;;;;;;;1999.90;999.90;;;;;;;5.52;100.00;96742.50;5112872;28;20272;-68
2021/10/19 03:27:41;;;;;;;1999.90;999.90;;;;;;;5.48;100.00;96743.94;5114426;28;20203;-68
2021/10/19 03:30:09;;;;;;;1999.90;999.90;;;;;;;5.54;100.00;96742.25;5114031;28;20195;-68
2021/10/19 03:32:36;;;;;;;1999.90;999.90;;;;;;;5.49;100.00;96755.03;5113821;28;20194;-69
2021/10/19 03:35:04;;;;;;;1999.90;999.90;;;;;;;5.56;100.00;96758.28;5113953;28;20199;-68
2021/10/19 03:37:31;;;;;;;1999.90;999.90;;;;;;;5.50;100.00;96748.88;5114165;27;20194;-69
2021/10/19 03:40:00;;;;;;;1999.90;999.90;;;;;;;5.45;100.00;96754.72;5114425;28;20206;-69
2021/10/19 03:42:27;;;;;;;1999.90;999.90;;;;;;;5.32;100.00;96759.38;5113692;28;20195;-69
2021/10/19 03:44:54;;;;;;;1999.90;999.90;;;;;;;5.20;100.00;96755.03;5113716;28;20201;-69
2021/10/19 03:47:21;;;;;;;1999.90;999.90;;;;;;;5.10;100.00;96757.41;5113487;27;20206;-69
2021/10/19 03:49:48;;;;;;;1999.90;999.90;;;;;;;4.97;100.00;96760.22;5113602;28;20206;-68
2021/10/19 03:52:16;;;;;;;1999.90;999.90;;;;;;;4.92;100.00;96754.97;5113356;28;20959;-69
2021/10/19 03:54:43;;;;;;;1999.90;999.90;;;;;;;4.91;100.00;96760.34;5113360;28;20199;-69
2021/10/19 03:57:11;;;;;;;1999.90;999.90;;;;;;;4.90;100.00;96751.03;5113299;28;20227;-69
2021/10/19 03:59:38;;;;;;;1999.90;999.90;;;;;;;4.73;100.00;96766.41;5113738;28;20195;-67
2021/10/19 04:02:05;;;;;;;1999.90;999.90;;;;;;;4.67;100.00;96762.16;5113390;28;20199;-69
2021/10/19 04:04:34;;;;;;;1999.90;999.90;;;;;;;4.61;100.00;96768.19;5113291;28;20599;-69
2021/10/19 04:07:02;;;;;;;1999.90;999.90;;;;;;;4.52;100.00;96769.53;5113551;28;20252;-69
2021/10/19 04:09:29;;;;;;;1999.90;999.90;;;;;;;4.43;100.00;96773.44;5113211;28;20195;-69
2021/10/19 04:11:56;;;;;;;1999.90;999.90;;;;;;;4.48;100.00;96782.06;5113229;28;20202;-69
2021/10/19 04:14:25;;;;;;;1999.90;999.90;;;;;;;4.35;100.00;96779.69;5113335;28;20203;-69
2021/10/19 04:16:52;;;;;;;1999.90;999.90;;;;;;;4.40;100.00;96781.59;5113080;28;20341;-68
2021/10/19 04:19:19;;;;;;;1999.90;999.90;;;;;;;4.41;100.00;96783.97;5113325;28;20191;-69
2021/10/19 04:21:47;;;;;;;1999.90;999.90;;;;;;;4.40;100.00;96786.75;5113027;28;20256;-69
2021/10/19 04:24:15;;;;;;;1999.90;999.90;;;;;;;4.25;100.00;96790.53;5113064;28;20195;-69
2021/10/19 04:26:43;;;;;;;1999.90;999.90;;;;;;;4.37;100.00;96784.63;5113004;28;20195;-71
2021/10/19 04:29:10;;;;;;;1999.90;999.90;;;;;;;4.28;100.00;96794.47;5113439;27;20191;-69
2021/10/19 04:31:39;;;;;;;1999.90;999.90;;;;;;;4.20;100.00;96785.25;5112973;28;20199;-69
2021/10/19 04:34:06;;;;;;;1999.90;999.90;;;;;;;4.07;100.00;96789.81;5112929;28;20201;-70
2021/10/19 04:36:34;;;;;;;1999.90;999.90;;;;;;;4.02;100.00;96797.41;5112230;28;20260;-69
2021/10/19 04:39:01;;;;;;;1999.90;999.90;;;;;;;4.11;100.00;96794.31;5113222;27;20263;-69
2021/10/19 04:41:29;;;;;;;1999.90;999.90;;;;;;;4.03;100.00;96792.06;5112782;28;20293;-69
2021/10/19 04:43:56;;;;;;;1999.90;999.90;;;;;;;4.05;100.00;96795.16;5113170;27;20218;-69
2021/10/19 04:46:23;;;;;;;1999.90;999.90;;;;;;;4.06;100.00;96796.75;5113165;28;20195;-69
2021/10/19 04:48:52;;;;;;;1999.90;999.90;;;;;;;3.78;100.00;96793.97;5112701;28;20608;-68
2021/10/19 04:51:19;;;;;;;1999.90;999.90;;;;;;;3.69;100.00;96798.63;5112733;28;20278;-68
2021/10/19 04:53:46;;;;;;;1999.90;999.90;;;;;;;3.72;100.00;96802.56;5112879;28;20247;-69
2021/10/19 04:56:14;;;;;;;1999.90;999.90;;;;;;;3.72;100.00;96802.56;5112242;28;20223;-70
2021/10/19 04:58:41;;;;;;;1999.90;999.90;;;;;;;3.89;100.00;96800.94;5112456;28;20658;-70
2021/10/19 05:01:09;;;;;;;1999.90;999.90;;;;;;;3.94;100.00;96803.63;5112403;28;20194;-68
2021/10/19 05:03:37;;;;;;;1999.90;999.90;;;;;;;3.90;100.00;96807.66;5112280;28;20199;-68
2021/10/19 05:06:05;;;;;;;1999.90;999.90;;;;;;;3.94;100.00;96819.06;5112250;28;20202;-68
2021/10/19 05:08:32;;;;;;;1999.90;999.90;;;;;;;4.03;100.00;96816.97;5112237;28;20199;-68
2021/10/19 05:11:00;;;;;;;1999.90;999.90;;;;;;;4.18;100.00;96830.22;5112120;28;20195;-68
2021/10/19 05:13:27;;;;;;;1999.90;999.90;;;;;;;4.28;100.00;96830.47;5111684;28;20195;-68
2021/10/19 05:15:54;;;;;;;1999.90;999.90;;;;;;;4.39;100.00;96836.63;5111955;28;20219;-68
2021/10/19 05:18:21;;;;;;;1999.90;999.90;;;;;;;4.51;100.00;96837.44;5111891;28;20198;-68
2021/10/19 05:20:48;;;;;;;1999.90;999.90;;;;;;;4.56;100.00;96837.56;5112302;28;20206;-68
2021/10/19 05:23:17;;;;;;;1999.90;999.90;;;;;;;4.65;100.00;96846.53;5111791;28;20708;-68
2021/10/19 05:25:44;;;;;;;1999.90;999.90;;;;;;;4.77;100.00;96847.34;5111851;28;20293;-68
2021/10/19 05:28:11;;;;;;;1999.90;999.90;;;;;;;4.80;100.00;96854.63;5111884;28;20195;-68
2021/10/19 05:30:39;;;;;;;1999.90;999.90;;;;;;;4.86;100.00;96853.72;5111837;28;20203;-68
2021/10/19 05:33:07;;;;;;;1999.90;999.90;;;;;;;4.92;100.00;96858.00;5111756;28;20247;-68
2021/10/19 05:35:34;;;;;;;1999.90;999.90;;;;;;;5.01;100.00;96861.81;5111578;28;20234;-68
2021/10/19 05:38:01;;;;;;;1999.90;999.90;;;;;;;5.06;100.00;96868.84;5111742;28;20199;-68
2021/10/19 05:40:30;;;;;;;1999.90;999.90;;;;;;;5.14;100.00;96873.66;5111674;28;20198;-68
2021/10/19 05:42:57;;;;;;;1999.90;999.90;;;;;;;5.24;100.00;96868.72;5111633;28;20210;-68
2021/10/19 05:45:24;;;;;;;1999.90;999.90;;;;;;;5.30;100.00;96874.78;5111582;28;20203;-68
2021/10/19 05:47:51;;;;;;;1999.90;999.90;;;;;;;5.35;100.00;96867.94;5110506;28;20293;-68
2021/10/19 05:50:19;;;;;;;1999.90;999.90;;;;;;;5.28;100.00;96871.66;5111364;28;20194;-68
2021/10/19 05:52:46;;;;;;;1999.90;999.90;;;;;;;5.43;100.00;96874.56;5111614;28;20203;-68
2021/10/19 05:55:13;;;;;;;1999.90;999.90;;;;;;;5.51;100.00;96881.94;5111288;28;20194;-68
2021/10/19 05:57:42;;;;;;;1999.90;999.90;;;;;;;5.67;100.00;96881.25;5111046;28;20231;-68
2021/10/19 06:00:10;;;;;;;1999.90;999.90;;;;;;;5.84;100.00;96882.09;5111265;28;20199;-68
2021/10/19 06:02:37;;;;;;;1999.90;999.90;;;;;;;6.02;100.00;96876.81;5111476;28;20199;-68
2021/10/19 06:05:05;;;;;;;1999.90;999.90;;;;;;;6.14;100.00;96881.91;5111515;28;20209;-69
2021/10/19 06:07:32;;;;;;;1999.90;999.90;;;;;;;6.29;100.00;96891.72;5111073;28;20202;-68
2021/10/19 06:09:59;;;;;;;1999.90;999.90;;;;;;;6.57;100.00;96886.56;5111459;28;20198;-68
2021/10/19 06:12:27;;;;;;;1999.90;999.90;;;;;;;6.73;100.00;96892.72;5110974;28;20198;-68
2021/10/19 06:14:56;;;;;;;1999.90;999.90;;;;;;;6.93;100.00;96896.41;5111305;28;20202;-68
2021/10/19 06:17:23;;;;;;;1999.90;999.90;;;;;;;7.15;100.00;96898.28;5111044;28;20253;-68
2021/10/19 06:19:50;;;;;;;1999.90;999.90;;;;;;;7.38;100.00;96902.50;5111283;28;20234;-68
2021/10/19 06:22:18;;;;;;;1999.90;999.90;;;;;;;7.55;100.00;96904.03;5111128;28;20677;-68
2021/10/19 06:24:45;;;;;;;1999.90;999.90;;;;;;;7.66;100.00;96903.16;5111108;28;20246;-68
2021/10/19 06:27:12;;;;;;;1999.90;999.90;;;;;;;7.87;100.00;96901.56;5111221;28;20199;-68
2021/10/19 06:29:39;;;;;;;1999.90;999.90;;;;;;;8.08;100.00;96902.59;5110822;28;20598;-68
2021/10/19 06:32:08;;;;;;;1999.90;999.90;;;;;;;8.21;100.00;96904.81;5110915;28;20199;-68
2021/10/19 06:34:35;;;;;;;1999.90;999.90;;;;;;;8.37;100.00;96900.63;5110757;28;20203;-69
2021/10/19 06:37:02;;;;;;;1999.90;999.90;;;;;;;8.52;100.00;96911.09;5111085;28;20223;-69
2021/10/19 06:39:30;;;;;;;1999.90;999.90;;;;;;;8.70;100.00;96915.97;5110874;28;20202;-70
2021/10/19 06:41:57;;;;;;;1999.90;999.90;;;;;;;8.84;99.66;96914.53;5111063;28;20191;-69
2021/10/19 06:44:24;;;;;;;1999.90;999.90;;;;;;;8.89;99.35;96919.75;5110964;28;20268;-69
2021/10/19 06:46:51;;;;;;;1999.90;999.90;;;;;;;9.10;98.99;96906.94;5110988;28;20195;-69
2021/10/19 06:49:19;;;;;;;1999.90;999.90;;;;;;;9.17;98.72;96916.06;5110946;28;20683;-69
2021/10/19 06:51:47;;;;;;;1999.90;999.90;;;;;;;9.32;97.47;96923.94;5110414;28;20194;-69
2021/10/19 06:54:14;;;;;;;1999.90;999.90;;;;;;;9.42;95.08;96929.19;5110512;28;20198;-68
2021/10/19 06:56:41;;;;;;;1999.90;999.90;;;;;;;9.40;94.11;96933.88;5110243;28;20330;-69
2021/10/19 06:59:08;;;;;;;1999.90;999.90;;;;;;;9.59;92.70;96943.84;5110462;28;20198;-70
2021/10/19 07:01:35;;;;;;;1999.90;999.90;;;;;;;9.65;93.28;96933.25;5110402;28;20666;-69
2021/10/19 07:04:03;;;;;;;1999.90;999.90;;;;;;;9.64;92.69;96936.09;5110016;28;20627;-69
2021/10/19 07:06:31;;;;;;;1999.90;999.90;;;;;;;9.50;92.65;96941.72;5110316;28;20205;-69
2021/10/19 07:08:58;;;;;;;1999.90;999.90;;;;;;;9.67;92.01;96936.34;5110673;28;20558;-69
2021/10/19 07:11:27;;;;;;;1999.90;999.90;;;;;;;9.89;92.06;96941.41;5110617;28;20207;-68
2021/10/19 07:13:54;;;;;;;1999.90;999.90;;;;;;;10.05;93.41;96940.44;5110562;28;20582;-69
2021/10/19 07:16:21;;;;;;;1999.90;999.90;;;;;;;10.20;92.99;96934.56;5110493;28;20223;-69
2021/10/19 07:18:48;;;;;;;1999.90;999.90;;;;;;;10.39;89.93;96932.28;5110311;28;20667;-68
2021/10/19 07:21:15;;;;;;;1999.90;999.90;;;;;;;10.47;90.45;96939.56;5110555;28;20202;-68
2021/10/19 07:23:44;;;;;;;1999.90;999.90;;;;;;;10.55;90.25;96936.47;5110464;28;20217;-68
2021/10/19 07:26:11;;;;;;;1999.90;999.90;;;;;;;10.56;89.81;96935.44;5110218;28;20220;-68
2021/10/19 07:28:38;;;;;;;1999.90;999.90;;;;;;;10.74;88.50;96929.75;5110524;28;20195;-68
2021/10/19 07:31:05;;;;;;;1999.90;999.90;;;;;;;10.83;87.24;96938.59;5110184;28;20203;-68
2021/10/19 07:33:32;;;;;;;1999.90;999.90;;;;;;;11.00;88.23;96936.53;5110395;28;20199;-68
2021/10/19 07:35:59;;;;;;;1999.90;999.90;;;;;;;11.18;87.02;96930.78;5110312;28;20222;-68
2021/10/19 07:38:26;;;;;;;1999.90;999.90;;;;;;;11.16;83.28;96930.25;5110391;28;20202;-69
2021/10/19 07:40:55;;;;;;;1999.90;999.90;;;;;;;11.37;81.91;96925.84;5110021;28;20191;-68
2021/10/19 07:43:22;;;;;;;1999.90;999.90;;;;;;;11.54;83.06;96933.38;5110071;28;20199;-68
2021/10/19 07:45:49;;;;;;;1999.90;999.90;;;;;;;11.57;81.99;96930.22;5110404;28;20203;-68
2021/10/19 07:48:16;;;;;;;1999.90;999.90;;;;;;;11.64;80.74;96930.75;5110147;28;20203;-68
2021/10/19 07:50:47;;;;;;;1999.90;999.90;;;;;;;11.84;78.73;96925.50;5110271;28;20204;-69
2021/10/19 07:53:14;;;;;;;1999.90;999.90;;;;;;;11.77;80.83;96927.59;5109999;28;20611;-68
2021/10/19 07:55:41;;;;;;;1999.90;999.90;;;;;;;11.72;80.06;96919.78;5109899;28;20187;-68
2021/10/19 07:58:11;;;;;;;1999.90;999.90;;;;;;;11.73;80.15;96923.97;5109807;28;20235;-69
2021/10/19 08:00:38;;;;;;;1999.90;999.90;;;;;;;12.06;77.90;96922.53;5109763;28;20701;-68
2021/10/19 08:03:05;;;;;;;1999.90;999.90;;;;;;;12.15;77.11;96933.22;5110182;28;20199;-69
2021/10/19 08:05:33;;;;;;;1999.90;999.90;;;;;;;12.27;76.30;96921.41;5109768;28;20199;-69
2021/10/19 08:08:08;;;;;;;1999.90;999.90;;;;;;;12.42;77.35;96925.75;5109760;28;20267;-69
2021/10/19 08:10:36;;;;;;;1999.90;999.90;;;;;;;12.64;76.12;96925.38;5110259;28;20198;-69
2021/10/19 08:13:03;;;;;;;1999.90;999.90;;;;;;;12.77;77.49;96916.94;5113472;28;20199;-68
2021/10/19 08:15:32;;;;;;;1999.90;999.90;;;;;;;12.67;78.21;96919.63;5113689;28;20210;-69
2021/10/19 08:18:00;;;;;;;1999.90;999.90;;;;;;;12.86;76.89;96918.69;5113106;28;20704;-69
2021/10/19 08:20:27;;;;;;;1999.90;999.90;;;;;;;13.09;75.68;96921.69;5113309;28;20202;-68
2021/10/19 08:22:54;;;;;;;1999.90;999.90;;;;;;;13.30;75.54;96923.06;5113476;27;20199;-67
2021/10/19 08:25:21;;;;;;;1999.90;999.90;;;;;;;13.38;73.26;96922.50;5113263;28;20198;-68
2021/10/19 08:27:48;;;;;;;1999.90;999.90;;;;;;;13.07;72.65;96924.53;5113077;28;20191;-67
2021/10/19 08:30:18;;;;;;;1999.90;999.90;;;;;;;12.98;71.92;96928.03;5113121;28;20207;-68
2021/10/19 08:32:47;;;;;;;1999.90;999.90;;;;;;;13.21;70.19;96924.72;5113561;28;20287;-68
2021/10/19 08:35:15;;;;;;;1999.90;999.90;;;;;;;13.07;69.72;96924.53;5113034;28;20203;-68
2021/10/19 08:37:42;;;;;;;1999.90;999.90;;;;;;;13.19;69.24;96925.00;5113226;28;20217;-68
2021/10/19 08:40:10;;;;;;;1999.90;999.90;;;;;;;13.34;70.11;96922.28;5113107;28;20798;-68
2021/10/19 08:42:44;;;;;;;1999.90;999.90;;;;;;;13.26;70.31;96919.44;5112752;28;20293;-68
2021/10/19 08:45:11;;;;;;;1999.90;999.90;;;;;;;13.49;68.93;96917.94;5112799;28;20187;-68
2021/10/19 08:47:38;;;;;;;1999.90;999.90;;;;;;;13.71;67.50;96919.00;5112652;28;20199;-68
2021/10/19 08:50:08;;;;;;;1999.90;999.90;;;;;;;13.75;67.18;96914.00;5112955;28;20207;-68
2021/10/19 08:52:35;;;;;;;1999.90;999.90;;;;;;;13.92;66.36;96914.34;5112592;28;20202;-69
2021/10/19 08:55:03;;;;;;;1999.90;999.90;;;;;;;13.99;66.08;96919.25;5112640;28;20203;-69
2021/10/19 08:57:30;;;;;;;1999.90;999.90;;;;;;;14.04;66.30;96912.13;5112291;28;20599;-68
2021/10/19 08:59:58;;;;;;;1999.90;999.90;;;;;;;14.23;67.48;96909.53;5112480;28;20199;-68
2021/10/19 09:02:38;;;;;;;1999.90;999.90;;;;;;;14.12;67.16;96908.09;5111926;28;20195;-69
2021/10/19 09:05:08;;;;;;;1999.90;999.90;;;;;;;13.96;66.43;96904.88;5112823;28;20183;-69
2021/10/19 09:07:35;;;;;;;1999.90;999.90;;;;;;;13.87;69.37;96903.94;5112277;28;20183;-68
2021/10/19 09:10:02;;;;;;;1999.90;999.90;;;;;;;14.03;67.39;96897.50;5112305;28;20290;-68
2021/10/19 09:12:29;;;;;;;1999.90;999.90;;;;;;;14.18;61.43;96893.91;5112508;28;20222;-68
2021/10/19 09:15:05;;;;;;;1999.90;999.90;;;;;;;14.35;63.84;96896.03;5112537;28;20267;-68
2021/10/19 09:17:39;;;;;;;1999.90;999.90;;;;;;;14.53;59.39;96890.84;5112026;28;20236;-68
2021/10/19 09:20:18;;;;;;;1999.90;999.90;;;;;;;14.42;60.71;96889.44;5110816;28;20231;-68
2021/10/19 09:22:56;;;;;;;1999.90;999.90;;;;;;;14.56;59.14;96887.66;5102710;28;20206;-68
2021/10/19 09:25:28;;;;;;;1999.90;999.90;;;;;;;14.59;59.12;96881.09;5112362;27;20573;-68
2021/10/19 09:27:56;;;;;;;1999.90;999.90;;;;;;;14.34;57.83;96876.19;5112262;28;20199;-70
2021/10/19 09:30:38;;;;;;;1999.90;999.90;;;;;;;14.54;62.52;96874.09;5111873;28;20248;-69
2021/10/19 09:33:07;;;;;;;1999.90;999.90;;;;;;;14.71;62.49;96870.94;5111852;28;20227;-69
2021/10/19 09:35:36;;;;;;;1999.90;999.90;;;;;;;14.37;61.37;96868.56;5112180;27;20223;-70
2021/10/19 09:38:06;;;;;;;1999.90;999.90;;;;;;;14.56;57.66;96871.16;5111933;28;20222;-67
2021/10/19 09:40:35;;;;;;;1999.90;999.90;;;;;;;14.60;58.51;96878.16;5112013;28;20274;-67
2021/10/19 09:43:04;;;;;;;1999.90;999.90;;;;;;;14.58;57.59;96872.47;5112167;28;20831;-67
2021/10/19 09:45:32;;;;;;;1999.90;999.90;;;;;;;14.82;56.96;96867.13;5111671;28;20191;-66
2021/10/19 09:47:59;;;;;;;1999.90;999.90;;;;;;;14.73;58.19;96857.59;5111881;28;20674;-67
2021/10/19 09:50:28;;;;;;;1999.90;999.90;;;;;;;14.95;56.71;96857.72;5111703;28;20807;-68
2021/10/19 09:52:58;;;;;;;1999.90;999.90;;;;;;;15.09;55.60;96854.09;5111602;28;20229;-67
2021/10/19 09:55:25;;;;;;;1999.90;999.90;;;;;;;15.07;55.47;96855.44;5111425;28;20191;-68
2021/10/19 09:57:53;;;;;;;1999.90;999.90;;;;;;;15.23;55.20;96848.88;5111181;27;20235;-68
2021/10/19 10:00:23;;;;;;;1999.90;999.90;;;;;;;15.33;56.21;96850.56;5111713;28;20737;-68
2021/10/19 10:02:50;;;;;;;1999.90;999.90;;;;;;;15.46;55.66;96853.16;5111237;28;20195;-68
2021/10/19 10:05:18;;;;;;;1999.90;999.90;;;;;;;15.28;58.44;96846.19;5111296;28;20188;-68
2021/10/19 10:07:48;;;;;;;1999.90;999.90;;;;;;;15.56;58.70;96846.22;5111357;28;20233;-68
2021/10/19 10:10:18;;;;;;;1999.90;999.90;;;;;;;15.36;57.00;96842.09;5111441;28;20195;-68
2021/10/19 10:12:49;;;;;;;1999.90;999.90;;;;;;;15.53;54.45;96846.81;5111175;28;20195;-68
2021/10/19 10:15:25;;;;;;;1999.90;999.90;;;;;;;15.41;55.20;96837.53;5111195;28;20210;-67
2021/10/19 10:17:56;;;;;;;1999.90;999.90;;;;;;;15.58;53.86;96836.22;5110998;28;20226;-67
2021/10/19 10:20:34;;;;;;;1999.90;999.90;;;;;;;15.41;57.04;96834.94;5110935;28;20192;-68
2021/10/19 10:23:12;;;;;;;1999.90;999.90;;;;;;;15.47;58.30;96828.53;5111289;28;20245;-68
2021/10/19 10:25:41;;;;;;;1999.90;999.90;;;;;;;15.30;55.92;96819.69;5111158;28;20204;-68
2021/10/19 10:28:14;;;;;;;1999.90;999.90;;;;;;;15.03;57.84;96829.06;5111222;28;20248;-67
2021/10/19 10:30:41;;;;;;;1999.90;999.90;;;;;;;15.05;59.33;96820.91;5111402;28;20643;-68
2021/10/19 10:33:09;;;;;;;1999.90;999.90;;;;;;;14.92;58.03;96824.28;5110640;28;20191;-68
2021/10/19 10:35:43;;;;;;;1999.90;999.90;;;;;;;14.88;57.70;96823.31;5110693;28;20206;-68
2021/10/19 10:38:11;;;;;;;1999.90;999.90;;;;;;;14.72;58.61;96817.56;5110600;28;20301;-68
2021/10/19 10:40:41;;;;;;;1999.90;999.90;;;;;;;15.04;56.70;96814.91;5110713;28;20439;-68
2021/10/19 10:43:23;;;;;;;1999.90;999.90;;;;;;;15.28;56.89;96819.97;5111274;28;20695;-67
2021/10/19 10:46:03;;;;;;;1999.90;999.90;;;;;;;15.51;54.02;96810.41;5110939;28;20190;-68
2021/10/19 10:48:30;;;;;;;1999.90;999.90;;;;;;;15.63;53.49;96809.91;5110468;28;20277;-68
2021/10/19 10:50:58;;;;;;;1999.90;999.90;;;;;;;15.69;51.39;96800.88;5110124;28;20203;-68
2021/10/19 10:53:34;;;;;;;1999.90;999.90;;;;;;;15.76;54.03;96798.63;5110762;28;20195;-69
2021/10/19 10:56:03;;;;;;;1999.90;999.90;;;;;;;15.77;52.77;96800.97;5110795;28;20581;-68
2021/10/19 10:58:34;;;;;;;1999.90;999.90;;;;;;;15.77;53.26;96802.81;5110830;28;20226;-68